Time;durP1;ratioP1;P1;durP2;ratioP2;P2;SDS_P1;SDS_P2;PMS_P1;PMS_P2;Temp;Humidity;BMP_temperature;BMP_pressure;BME280_temperature;BME280_humidity;BME280_pressure;Samples;Min_cycle;Max_cycle;Signal;HPM_P1;HPM_P2
2023/10/04 00:00:36;;;;;;;9.32;2.72;;;16.80;54.80;;;;;;5037251;28;20049;-40
2023/10/04 00:03:04;;;;;;;6.28;2.10;;;16.80;54.80;;;;;;5037703;28;20059;-41
2023/10/04 00:05:31;;;;;;;5.03;2.10;;;16.80;54.90;;;;;;5038586;28;20056;-42
2023/10/04 00:07:59;;;;;;;7.63;2.13;;;16.70;54.80;;;;;;5038263;28;20514;-42
2023/10/04 00:10:28;;;;;;;8.65;2.50;;;16.70;54.90;;;;;;5038502;28;20061;-41
2023/10/04 00:12:55;;;;;;;7.07;2.20;;;16.70;55.00;;;;;;5037792;28;20052;-43
2023/10/04 00:15:25;;;;;;;9.02;2.20;;;16.70;55.00;;;;;;5041388;28;20899;-44
2023/10/04 00:17:53;;;;;;;10.00;2.50;;;16.70;55.10;;;;;;5042271;28;20049;-40
2023/10/04 00:20:22;;;;;;;6.97;2.38;;;16.70;55.10;;;;;;5041661;28;20433;-42
2023/10/04 00:22:49;;;;;;;5.10;1.50;;;16.60;55.20;;;;;;5040218;28;20052;-40
2023/10/04 00:25:20;;;;;;;7.25;2.35;;;16.70;55.20;;;;;;5043215;28;20044;-40
2023/10/04 00:27:50;;;;;;;8.65;2.08;;;16.60;55.20;;;;;;5041441;28;20053;-41
2023/10/04 00:30:18;;;;;;;5.95;1.92;;;16.60;55.30;;;;;;5039171;28;20057;-39
2023/10/04 00:32:47;;;;;;;8.23;2.35;;;16.60;55.30;;;;;;5039684;28;20501;-40
2023/10/04 00:35:17;;;;;;;6.65;1.90;;;16.60;55.40;;;;;;5038769;28;20417;-40
2023/10/04 00:37:47;;;;;;;12.48;1.98;;;16.60;55.40;;;;;;5043025;28;20591;-40
2023/10/04 00:40:21;;;;;;;6.20;1.88;;;16.60;55.50;;;;;;5043630;28;20056;-40
2023/10/04 00:42:51;;;;;;;9.40;2.00;;;16.60;55.50;;;;;;5039440;28;20056;-44
2023/10/04 00:45:21;;;;;;;4.72;1.80;;;16.60;55.50;;;;;;5040361;28;20061;-36
2023/10/04 00:47:53;;;;;;;10.90;2.42;;;16.60;55.50;;;;;;5041523;28;20052;-41
2023/10/04 00:50:26;;;;;;;5.32;1.58;;;16.60;55.60;;;;;;5039467;28;20049;-40
2023/10/04 00:53:00;;;;;;;7.78;2.20;;;16.60;55.70;;;;;;5040403;28;20045;-39
2023/10/04 00:55:29;;;;;;;8.48;2.20;;;16.60;55.70;;;;;;5042111;28;20432;-42
2023/10/04 00:58:00;;;;;;;7.78;2.10;;;16.60;55.80;;;;;;5041324;28;20057;-40
2023/10/04 01:00:29;;;;;;;7.88;2.10;;;16.60;55.90;;;;;;5040387;28;20056;-42
2023/10/04 01:02:56;;;;;;;7.03;1.98;;;16.60;55.90;;;;;;5040510;28;20045;-42
2023/10/04 01:05:25;;;;;;;7.32;2.08;;;16.60;56.00;;;;;;5041698;28;20424;-42
2023/10/04 01:07:53;;;;;;;7.20;2.05;;;16.60;56.00;;;;;;5041114;28;20049;-40
2023/10/04 01:10:26;;;;;;;8.05;2.00;;;16.60;56.00;;;;;;5041997;28;20053;-39
2023/10/04 01:12:56;;;;;;;7.50;1.95;;;16.60;56.10;;;;;;5040600;28;20061;-40
2023/10/04 01:15:30;;;;;;;5.38;1.85;;;16.60;56.10;;;;;;5041299;28;20048;-42
2023/10/04 01:17:58;;;;;;;7.20;2.10;;;16.60;56.20;;;;;;5038782;28;20413;-41
2023/10/04 01:20:28;;;;;;;7.50;2.58;;;16.60;56.20;;;;;;5040794;28;20071;-41
2023/10/04 01:23:00;;;;;;;5.88;1.75;;;16.60;56.30;;;;;;5038863;28;20045;-39
2023/10/04 01:25:29;;;;;;;6.43;2.13;;;16.70;56.40;;;;;;5040701;28;20136;-40
2023/10/04 01:27:58;;;;;;;8.05;1.70;;;16.60;56.40;;;;;;5039420;28;20049;-39
2023/10/04 01:30:25;;;;;;;11.68;2.45;;;16.70;56.40;;;;;;5038430;28;20053;-42
2023/10/04 01:32:53;;;;;;;6.50;2.30;;;16.60;56.30;;;;;;5038102;28;20416;-42
2023/10/04 01:35:24;;;;;;;13.73;2.42;;;16.70;56.40;;;;;;5040294;28;20053;-37
2023/10/04 01:37:52;;;;;;;7.15;2.08;;;16.70;56.30;;;;;;5038820;28;20547;-38
2023/10/04 01:40:25;;;;;;;7.10;1.73;;;16.60;56.30;;;;;;5040624;28;20065;-38
2023/10/04 01:42:55;;;;;;;8.25;2.40;;;16.60;56.40;;;;;;5038951;28;20045;-43
2023/10/04 01:45:22;;;;;;;5.43;1.55;;;16.70;56.40;;;;;;5040079;28;20064;-41
2023/10/04 01:47:50;;;;;;;8.63;2.13;;;16.60;56.40;;;;;;5040618;28;20061;-40
2023/10/04 01:50:17;;;;;;;11.30;3.05;;;16.60;56.50;;;;;;5038057;28;20064;-39
2023/10/04 01:52:47;;;;;;;8.85;1.98;;;16.60;56.50;;;;;;5041052;28;20053;-42
2023/10/04 01:55:16;;;;;;;7.10;1.40;;;16.60;56.50;;;;;;5039432;28;20049;-39
2023/10/04 01:57:46;;;;;;;6.25;2.10;;;16.60;56.50;;;;;;5039060;28;20056;-35
2023/10/04 02:00:20;;;;;;;6.53;1.65;;;16.60;56.60;;;;;;5037897;28;20413;-36
2023/10/04 02:02:49;;;;;;;8.20;2.17;;;16.60;56.60;;;;;;5036033;28;20409;-35
2023/10/04 02:05:24;;;;;;;4.88;1.65;;;16.60;56.60;;;;;;5039241;28;21347;-37
2023/10/04 02:07:53;;;;;;;8.02;2.33;;;16.60;56.60;;;;;;5040004;28;20505;-36
2023/10/04 02:10:21;;;;;;;9.40;2.20;;;16.60;56.60;;;;;;5038190;28;20053;-36
2023/10/04 02:12:53;;;;;;;5.35;1.50;;;16.60;56.60;;;;;;5037711;28;20049;-38
2023/10/04 02:15:20;;;;;;;7.47;1.63;;;16.60;57.10;;;;;;5039990;28;20053;-35
2023/10/04 02:17:48;;;;;;;8.25;1.85;;;16.70;56.60;;;;;;5039389;28;20049;-36
2023/10/04 02:20:28;;;;;;;6.45;1.90;;;16.60;56.60;;;;;;5038610;28;20789;-36
2023/10/04 02:22:56;;;;;;;8.70;1.83;;;16.60;56.60;;;;;;5041098;28;20061;-39
2023/10/04 02:25:23;;;;;;;9.48;2.05;;;16.60;56.60;;;;;;5042557;28;20143;-36
2023/10/04 02:27:52;;;;;;;7.57;1.60;;;16.70;56.60;;;;;;5039046;28;20053;-35
2023/10/04 02:30:26;;;;;;;6.93;2.20;;;16.70;56.60;;;;;;5039224;28;20076;-36
2023/10/04 02:32:54;;;;;;;6.95;2.10;;;16.70;56.70;;;;;;5034556;28;20493;-35
2023/10/04 02:35:27;;;;;;;8.43;2.17;;;16.70;56.70;;;;;;5037528;28;20429;-35
2023/10/04 02:37:59;;;;;;;7.80;1.80;;;16.70;56.60;;;;;;5039676;28;20052;-35
2023/10/04 02:40:32;;;;;;;11.10;2.28;;;16.70;56.60;;;;;;5039957;28;20655;-35
2023/10/04 02:43:04;;;;;;;10.35;2.67;;;16.70;56.60;;;;;;5038147;28;20057;-36
2023/10/04 02:45:31;;;;;;;5.97;1.63;;;16.70;56.50;;;;;;5040303;28;20060;-35
2023/10/04 02:47:58;;;;;;;5.03;1.70;;;16.70;56.50;;;;;;5036998;28;20493;-35
2023/10/04 02:50:26;;;;;;;6.88;1.77;;;16.70;56.60;;;;;;5038747;28;20052;-35
2023/10/04 02:52:53;;;;;;;8.73;2.30;;;16.70;57.10;;;;;;5038156;28;20516;-38
2023/10/04 02:55:21;;;;;;;6.25;1.77;;;16.70;56.70;;;;;;5036793;28;20049;-36
2023/10/04 02:57:50;;;;;;;11.63;2.28;;;16.70;56.70;;;;;;5038882;28;20063;-35
2023/10/04 03:00:21;;;;;;;8.52;1.90;;;16.60;56.70;;;;;;5037239;28;20493;-35
2023/10/04 03:02:50;;;;;;;10.95;1.83;;;16.70;56.80;;;;;;5036741;28;20053;-35
2023/10/04 03:05:19;;;;;;;7.80;2.40;;;16.70;56.80;;;;;;5038315;28;20049;-37
2023/10/04 03:07:49;;;;;;;5.75;1.92;;;16.70;56.80;;;;;;5037627;28;20056;-35
2023/10/04 03:10:23;;;;;;;6.15;1.83;;;16.70;56.80;;;;;;5039224;28;20056;-35
2023/10/04 03:12:52;;;;;;;7.20;1.65;;;16.70;56.80;;;;;;5038421;28;20052;-35
2023/10/04 03:15:23;;;;;;;6.53;1.65;;;16.70;56.80;;;;;;5038023;28;20409;-35
2023/10/04 03:17:52;;;;;;;7.95;1.67;;;16.70;56.80;;;;;;5039052;28;20057;-34
2023/10/04 03:20:21;;;;;;;5.60;1.67;;;16.70;56.80;;;;;;5036126;28;20068;-36
2023/10/04 03:22:49;;;;;;;3.78;1.30;;;16.70;56.80;;;;;;5036991;28;20057;-35
2023/10/04 03:25:17;;;;;;;5.28;1.80;;;16.70;56.80;;;;;;5038570;28;20071;-36
2023/10/04 03:27:46;;;;;;;4.45;1.63;;;16.70;56.80;;;;;;5037792;28;20060;-35
2023/10/04 03:30:15;;;;;;;9.85;1.85;;;16.70;56.80;;;;;;5036147;28;20052;-37
2023/10/04 03:32:49;;;;;;;6.43;1.60;;;16.70;56.80;;;;;;5036146;28;20065;-35
2023/10/04 03:35:20;;;;;;;10.32;2.10;;;16.70;56.70;;;;;;5037751;28;20076;-36
2023/10/04 03:37:54;;;;;;;9.25;2.10;;;16.70;56.70;;;;;;5039632;28;20405;-35
2023/10/04 03:40:22;;;;;;;8.57;1.98;;;16.70;56.60;;;;;;5038406;28;20809;-35
2023/10/04 03:42:49;;;;;;;9.90;2.03;;;16.80;56.70;;;;;;5037194;28;20060;-35
2023/10/04 03:45:18;;;;;;;7.68;2.10;;;16.70;56.60;;;;;;5035158;28;20489;-37
2023/10/04 03:47:50;;;;;;;5.03;1.45;;;16.80;56.70;;;;;;5037480;28;20057;-35
2023/10/04 03:50:19;;;;;;;5.80;1.67;;;16.80;56.70;;;;;;5040068;28;20056;-38
2023/10/04 03:52:47;;;;;;;6.13;1.60;;;16.80;56.70;;;;;;5042559;28;20620;-36
2023/10/04 03:55:15;;;;;;;8.40;2.05;;;16.70;56.70;;;;;;5042974;28;20045;-36
2023/10/04 03:57:43;;;;;;;5.80;1.70;;;16.80;56.80;;;;;;5042673;28;20052;-37
2023/10/04 04:00:13;;;;;;;6.07;1.98;;;16.80;56.80;;;;;;5040833;28;20049;-35
2023/10/04 04:02:41;;;;;;;10.13;2.13;;;16.80;56.80;;;;;;5041673;28;20049;-35
2023/10/04 04:05:11;;;;;;;8.48;1.85;;;16.80;56.80;;;;;;5041939;28;20400;-35
2023/10/04 04:07:38;;;;;;;9.45;2.47;;;16.80;56.70;;;;;;5042302;28;20052;-35
2023/10/04 04:10:08;;;;;;;7.40;2.10;;;16.80;56.60;;;;;;5041132;28;20052;-38
2023/10/04 04:12:37;;;;;;;4.88;1.75;;;16.80;56.50;;;;;;5043372;28;20057;-36
2023/10/04 04:15:08;;;;;;;5.40;1.65;;;16.80;56.60;;;;;;5039789;28;20045;-36
2023/10/04 04:17:36;;;;;;;7.00;2.28;;;16.80;56.50;;;;;;5036563;28;20408;-41
2023/10/04 04:20:08;;;;;;;6.15;1.63;;;16.80;56.50;;;;;;5042995;28;20420;-43
2023/10/04 04:22:37;;;;;;;7.85;1.80;;;16.80;56.40;;;;;;5039240;28;20057;-44
2023/10/04 04:25:14;;;;;;;8.07;1.75;;;16.70;56.50;;;;;;5037363;28;20052;-40
2023/10/04 04:27:45;;;;;;;11.30;3.13;;;16.70;56.50;;;;;;5040362;28;20420;-43
2023/10/04 04:30:16;;;;;;;8.02;1.55;;;16.70;56.50;;;;;;5038570;28;20060;-40
2023/10/04 04:32:47;;;;;;;5.80;1.95;;;16.70;56.60;;;;;;5036916;28;20053;-40
2023/10/04 04:35:22;;;;;;;8.43;2.03;;;16.70;56.60;;;;;;5042861;28;20474;-42
2023/10/04 04:37:54;;;;;;;6.95;1.67;;;16.70;56.70;;;;;;5043124;28;20056;-40
2023/10/04 04:40:26;;;;;;;4.78;1.85;;;16.70;56.60;;;;;;5039766;28;20053;-42
2023/10/04 04:43:01;;;;;;;4.82;1.73;;;16.70;56.60;;;;;;5041426;28;20049;-40
2023/10/04 04:45:29;;;;;;;7.82;1.67;;;16.70;56.60;;;;;;5038756;28;20052;-42
2023/10/04 04:47:57;;;;;;;8.10;2.20;;;16.70;56.60;;;;;;5038030;28;20056;-40
2023/10/04 04:50:26;;;;;;;6.40;1.92;;;16.70;56.60;;;;;;5038993;28;20049;-42
2023/10/04 04:52:54;;;;;;;7.53;2.15;;;16.70;56.60;;;;;;5037841;28;20061;-42
2023/10/04 04:55:26;;;;;;;7.20;1.70;;;16.70;56.60;;;;;;5039476;28;20041;-40
2023/10/04 04:57:56;;;;;;;5.10;1.63;;;16.60;56.60;;;;;;5039845;28;20059;-41
2023/10/04 05:00:33;;;;;;;6.10;2.13;;;16.60;56.60;;;;;;5038271;28;20063;-41
2023/10/04 05:03:02;;;;;;;7.32;2.00;;;16.60;56.50;;;;;;5035171;28;20064;-42
2023/10/04 05:05:31;;;;;;;11.88;2.03;;;16.60;56.60;;;;;;5039018;28;20060;-41
2023/10/04 05:08:00;;;;;;;8.68;2.40;;;16.60;56.50;;;;;;5041899;28;20061;-42
2023/10/04 05:10:34;;;;;;;7.80;2.28;;;16.60;56.50;;;;;;5037321;28;20072;-40
2023/10/04 05:13:02;;;;;;;7.53;2.42;;;16.60;56.50;;;;;;5038612;28;20064;-40
2023/10/04 05:15:32;;;;;;;7.95;2.38;;;16.60;56.60;;;;;;5040156;28;20049;-41
2023/10/04 05:18:02;;;;;;;7.95;2.15;;;16.60;56.60;;;;;;5037968;28;20064;-40
2023/10/04 05:20:31;;;;;;;14.82;2.20;;;16.60;56.70;;;;;;5039443;28;20064;-41
2023/10/04 05:22:59;;;;;;;9.85;2.15;;;16.60;56.70;;;;;;5038404;28;20061;-41
2023/10/04 05:25:28;;;;;;;10.18;2.25;;;16.50;56.70;;;;;;5040778;28;20052;-40
2023/10/04 05:28:03;;;;;;;10.40;2.83;;;16.50;56.70;;;;;;5032247;28;20056;-36
2023/10/04 05:30:30;;;;;;;7.57;2.20;;;16.50;56.60;;;;;;5034656;28;20056;-35
2023/10/04 05:32:58;;;;;;;8.73;2.10;;;16.50;56.60;;;;;;5038585;28;20060;-35
2023/10/04 05:35:26;;;;;;;9.68;2.22;;;16.50;56.60;;;;;;5041769;28;20045;-35
2023/10/04 05:37:53;;;;;;;8.05;2.25;;;16.50;56.70;;;;;;5040351;28;20045;-36
2023/10/04 05:40:26;;;;;;;7.43;1.95;;;16.50;56.70;;;;;;5038836;28;20056;-37
2023/10/04 05:42:54;;;;;;;12.20;2.40;;;16.50;56.70;;;;;;5039122;28;20060;-37
2023/10/04 05:45:21;;;;;;;12.38;2.22;;;16.50;56.80;;;;;;5036145;28;20045;-36
2023/10/04 05:47:50;;;;;;;7.05;2.05;;;16.50;56.90;;;;;;5034710;28;20052;-38
2023/10/04 05:50:20;;;;;;;9.73;2.10;;;16.50;56.80;;;;;;5037340;28;20079;-35
2023/10/04 05:52:47;;;;;;;6.45;2.00;;;16.50;56.80;;;;;;5038271;28;20593;-35
2023/10/04 05:55:16;;;;;;;12.45;2.28;;;16.50;56.80;;;;;;5035306;28;21621;-36
2023/10/04 05:57:46;;;;;;;6.72;2.63;;;16.50;56.80;;;;;;5039105;28;20057;-36
2023/10/04 06:00:24;;;;;;;7.47;2.00;;;16.40;56.90;;;;;;5037547;28;20635;-35
2023/10/04 06:02:53;;;;;;;9.90;1.88;;;16.40;56.90;;;;;;5038244;28;20059;-35
2023/10/04 06:05:22;;;;;;;14.02;2.33;;;16.50;56.90;;;;;;5039069;28;20044;-37
2023/10/04 06:07:51;;;;;;;9.00;2.35;;;16.40;56.90;;;;;;5038437;28;20049;-35
2023/10/04 06:10:19;;;;;;;10.57;2.70;;;16.50;56.90;;;;;;5041676;28;20064;-37
2023/10/04 06:12:48;;;;;;;8.43;2.22;;;16.40;56.70;;;;;;5041862;28;20056;-35
2023/10/04 06:15:16;;;;;;;14.38;2.15;;;16.40;56.70;;;;;;5042000;28;20056;-36
2023/10/04 06:17:45;;;;;;;9.52;2.60;;;16.40;56.70;;;;;;5039158;28;20057;-35
2023/10/04 06:20:28;;;;;;;9.50;2.70;;;16.40;56.70;;;;;;5038855;28;20053;-35
2023/10/04 06:22:59;;;;;;;14.45;2.67;;;16.40;56.70;;;;;;5042164;28;20048;-36
2023/10/04 06:25:27;;;;;;;11.65;2.90;;;16.40;56.80;;;;;;5041696;28;20068;-36
2023/10/04 06:27:57;;;;;;;7.78;2.03;;;16.40;56.80;;;;;;5041490;28;20412;-35
2023/10/04 06:30:27;;;;;;;15.20;2.63;;;16.40;56.90;;;;;;5040977;28;20413;-35
2023/10/04 06:32:55;;;;;;;7.22;2.00;;;16.40;56.90;;;;;;5040072;28;20057;-35
2023/10/04 06:35:24;;;;;;;8.57;2.33;;;16.40;56.90;;;;;;5041961;28;20060;-35
2023/10/04 06:37:53;;;;;;;10.00;2.72;;;16.50;57.00;;;;;;5041188;28;20052;-35
2023/10/04 06:40:21;;;;;;;7.05;2.60;;;16.40;56.90;;;;;;5041045;28;20052;-36
2023/10/04 06:42:49;;;;;;;12.35;2.90;;;16.40;56.90;;;;;;5041091;28;20092;-36
2023/10/04 06:45:19;;;;;;;8.43;2.40;;;16.50;57.10;;;;;;5040892;28;20040;-35
2023/10/04 06:47:50;;;;;;;8.07;2.58;;;16.50;57.10;;;;;;5039984;28;20060;-35
2023/10/04 06:50:19;;;;;;;6.68;2.20;;;16.50;57.20;;;;;;5042171;28;20049;-36
2023/10/04 06:52:47;;;;;;;11.63;3.35;;;16.50;57.30;;;;;;5040415;28;20057;-35
2023/10/04 06:55:15;;;;;;;11.23;2.60;;;16.50;57.30;;;;;;5041072;28;20060;-35
2023/10/04 06:57:43;;;;;;;14.25;3.08;;;16.50;57.30;;;;;;5041230;28;20048;-35
2023/10/04 07:00:14;;;;;;;8.23;2.78;;;16.60;57.30;;;;;;5040569;28;20080;-36
2023/10/04 07:02:44;;;;;;;12.95;2.95;;;16.60;57.20;;;;;;5041043;28;20507;-36
2023/10/04 07:05:14;;;;;;;9.23;3.20;;;16.60;57.10;;;;;;5040614;28;20048;-38
2023/10/04 07:07:42;;;;;;;9.20;2.58;;;16.60;57.50;;;;;;5040376;28;20064;-35
2023/10/04 07:10:13;;;;;;;7.57;2.28;;;16.60;57.00;;;;;;5040927;28;20052;-37
2023/10/04 07:12:41;;;;;;;10.35;2.63;;;16.60;57.00;;;;;;5038267;28;20057;-36
2023/10/04 07:15:10;;;;;;;8.57;2.80;;;16.60;57.00;;;;;;5038628;28;20064;-35
2023/10/04 07:17:39;;;;;;;9.32;3.25;;;16.60;56.90;;;;;;5038567;28;20048;-36
2023/10/04 07:20:14;;;;;;;8.30;2.90;;;16.60;56.90;;;;;;5035448;28;20064;-35
2023/10/04 07:22:43;;;;;;;11.95;3.20;;;16.70;57.00;;;;;;5036093;28;20056;-36
2023/10/04 07:25:12;;;;;;;11.65;3.10;;;16.70;57.00;;;;;;5037156;28;20477;-35
2023/10/04 07:27:41;;;;;;;6.43;2.70;;;16.70;57.00;;;;;;5035535;28;20056;-35
2023/10/04 07:30:12;;;;;;;12.68;3.50;;;16.70;57.10;;;;;;5039001;28;20053;-35
2023/10/04 07:32:42;;;;;;;10.50;3.70;;;16.70;57.10;;;;;;5040140;28;20052;-35
2023/10/04 07:35:13;;;;;;;13.05;3.15;;;16.80;57.00;;;;;;5039723;28;20493;-35
2023/10/04 07:37:41;;;;;;;11.18;3.17;;;16.80;56.90;;;;;;5040064;28;20057;-37
2023/10/04 07:40:10;;;;;;;11.13;3.08;;;16.80;57.00;;;;;;5039645;28;20057;-36
2023/10/04 07:42:38;;;;;;;13.32;3.85;;;16.90;57.10;;;;;;5038474;28;20056;-35
2023/10/04 07:45:07;;;;;;;8.27;3.13;;;16.90;57.20;;;;;;5039245;28;20390;-35
2023/10/04 07:47:36;;;;;;;8.82;2.70;;;16.90;57.20;;;;;;5040449;28;20425;-40
2023/10/04 07:50:05;;;;;;;10.23;3.08;;;17.00;57.20;;;;;;5040452;28;20423;-40
2023/10/04 07:52:34;;;;;;;10.48;3.17;;;17.00;57.10;;;;;;5039030;28;20064;-39
2023/10/04 07:55:01;;;;;;;8.05;2.97;;;17.10;57.00;;;;;;5039281;28;20056;-40
2023/10/04 07:57:28;;;;;;;12.50;2.92;;;17.10;57.00;;;;;;5040069;28;20057;-41
2023/10/04 07:59:56;;;;;;;9.63;3.10;;;17.20;57.00;;;;;;5039435;28;20535;-39
2023/10/04 08:02:23;;;;;;;12.35;3.55;;;17.20;57.00;;;;;;5037423;28;20052;-40
2023/10/04 08:04:50;;;;;;;8.95;3.15;;;17.20;56.90;;;;;;5035906;28;20413;-39
2023/10/04 08:07:18;;;;;;;11.68;3.55;;;17.30;56.70;;;;;;5037320;28;20488;-39
2023/10/04 08:09:48;;;;;;;10.10;3.30;;;17.30;56.70;;;;;;5036116;28;20064;-39
2023/10/04 08:12:19;;;;;;;9.10;3.55;;;17.40;56.70;;;;;;5036798;28;20052;-39
2023/10/04 08:14:47;;;;;;;16.02;3.85;;;17.40;56.60;;;;;;5038771;28;20064;-38
2023/10/04 08:17:16;;;;;;;13.90;3.67;;;17.40;56.40;;;;;;5037932;28;20540;-41
2023/10/04 08:19:44;;;;;;;11.25;3.67;;;17.50;56.40;;;;;;5035515;28;20056;-40
2023/10/04 08:22:11;;;;;;;12.98;3.58;;;17.50;56.30;;;;;;5038582;28;20052;-39
2023/10/04 08:24:38;;;;;;;15.13;4.75;;;17.50;56.20;;;;;;5034193;28;20054;-39
2023/10/04 08:27:07;;;;;;;11.65;3.70;;;17.50;55.90;;;;;;5036439;28;20064;-39
2023/10/04 08:29:36;;;;;;;12.43;4.00;;;17.50;55.90;;;;;;5038856;28;20405;-39
2023/10/04 08:32:04;;;;;;;13.27;4.22;;;17.50;56.00;;;;;;5037688;28;20049;-39
2023/10/04 08:34:31;;;;;;;8.40;3.50;;;17.60;56.10;;;;;;5037903;28;20049;-40
2023/10/04 08:36:59;;;;;;;12.77;3.90;;;17.60;56.10;;;;;;5041207;28;20049;-42
2023/10/04 08:39:27;;;;;;;11.80;3.10;;;17.60;56.20;;;;;;5043175;28;20061;-41
2023/10/04 08:41:54;;;;;;;9.70;3.83;;;17.60;56.20;;;;;;5041737;28;20053;-40
2023/10/04 08:44:23;;;;;;;13.77;3.75;;;17.60;56.10;;;;;;5040468;28;20049;-40
2023/10/04 08:46:53;;;;;;;14.80;4.38;;;17.60;56.10;;;;;;5037988;28;20053;-41
2023/10/04 08:49:24;;;;;;;12.95;3.78;;;17.70;56.10;;;;;;5037748;28;20496;-39
2023/10/04 08:51:55;;;;;;;10.27;3.70;;;17.70;56.10;;;;;;5037022;28;20053;-40
2023/10/04 08:54:24;;;;;;;10.75;4.07;;;17.70;56.10;;;;;;5037586;28;20061;-40
2023/10/04 08:57:03;;;;;;;10.85;3.72;;;17.70;56.10;;;;;;5039593;28;20412;-40
2023/10/04 08:59:34;;;;;;;11.60;3.65;;;17.80;56.10;;;;;;5040275;28;20063;-38
2023/10/04 09:02:07;;;;;;;10.02;3.20;;;17.80;56.10;;;;;;5039505;28;20345;-34
2023/10/04 09:04:36;;;;;;;12.85;3.75;;;17.80;56.10;;;;;;5040592;28;20053;-35
2023/10/04 09:07:04;;;;;;;10.32;3.10;;;17.90;56.10;;;;;;5037460;28;20088;-35
2023/10/04 09:09:33;;;;;;;13.60;3.20;;;17.90;56.10;;;;;;5036420;28;20405;-35
2023/10/04 09:12:01;;;;;;;10.07;3.88;;;17.90;56.10;;;;;;5038388;28;20056;-35
2023/10/04 09:14:28;;;;;;;11.52;3.85;;;18.00;56.00;;;;;;5037707;28;20079;-35
2023/10/04 09:17:07;;;;;;;14.57;3.80;;;18.00;56.00;;;;;;5038493;28;20509;-36
2023/10/04 09:19:35;;;;;;;12.52;4.38;;;18.00;56.00;;;;;;5040728;28;20063;-35
2023/10/04 09:22:07;;;;;;;10.40;3.33;;;18.10;56.00;;;;;;5038815;28;20045;-35
2023/10/04 09:24:37;;;;;;;10.20;3.55;;;18.10;55.80;;;;;;5040438;28;20070;-35
2023/10/04 09:27:05;;;;;;;10.13;3.78;;;18.20;55.90;;;;;;5039581;28;20060;-34
2023/10/04 09:29:35;;;;;;;14.02;4.18;;;18.20;55.70;;;;;;5040213;28;20520;-35
2023/10/04 09:32:03;;;;;;;10.20;4.00;;;18.30;55.40;;;;;;5035937;28;20398;-35
2023/10/04 09:34:33;;;;;;;11.70;4.38;;;18.40;55.20;;;;;;5039056;28;20398;-49
2023/10/04 09:37:00;;;;;;;9.60;4.03;;;18.40;55.00;;;;;;5037132;28;20052;-49
2023/10/04 09:39:31;;;;;;;19.60;4.38;;;18.40;54.90;;;;;;5038690;28;20065;-49
2023/10/04 09:41:59;;;;;;;18.83;4.00;;;18.40;54.90;;;;;;5039415;28;20060;-46
2023/10/04 09:44:29;;;;;;;16.17;3.95;;;18.40;54.60;;;;;;5037452;28;20060;-50
2023/10/04 09:47:00;;;;;;;13.35;3.30;;;18.40;54.40;;;;;;5039148;28;20460;-51
2023/10/04 09:49:31;;;;;;;11.05;3.70;;;18.40;54.60;;;;;;5039083;28;20084;-46
2023/10/04 09:52:01;;;;;;;17.20;3.92;;;18.40;54.30;;;;;;5039864;28;20420;-47
2023/10/04 09:54:30;;;;;;;26.38;4.47;;;18.50;54.40;;;;;;5039706;28;20504;-48
2023/10/04 09:56:59;;;;;;;16.10;3.70;;;18.50;54.60;;;;;;5041107;28;20067;-51
2023/10/04 09:59:27;;;;;;;19.10;4.43;;;18.60;54.30;;;;;;5040553;28;20061;-51
2023/10/04 10:01:56;;;;;;;12.25;3.83;;;18.60;54.20;;;;;;5037941;28;20523;-48
2023/10/04 10:04:26;;;;;;;10.73;3.17;;;18.60;54.20;;;;;;5039530;28;20045;-48
2023/10/04 10:07:16;;;;;;;9.45;3.60;;;18.60;54.10;;;;;;5038810;28;20409;-49
2023/10/04 10:09:53;;;;;;;9.80;3.40;;;18.70;54.20;;;;;;5037548;28;20060;-49
2023/10/04 10:12:21;;;;;;;9.65;3.58;;;18.70;54.20;;;;;;5040149;28;20390;-51
2023/10/04 10:14:50;;;;;;;19.63;4.18;;;18.80;53.90;;;;;;5038140;28;20501;-48
2023/10/04 10:17:17;;;;;;;9.90;3.50;;;18.80;53.10;;;;;;5039426;28;20060;-47
2023/10/04 10:19:46;;;;;;;12.80;3.20;;;18.80;53.50;;;;;;5037148;28;20057;-50
2023/10/04 10:22:18;;;;;;;12.85;3.38;;;18.80;53.70;;;;;;5039373;28;20072;-51
2023/10/04 10:24:48;;;;;;;11.75;3.00;;;18.90;53.80;;;;;;5037561;28;20057;-49
2023/10/04 10:27:20;;;;;;;12.90;3.40;;;19.00;53.50;;;;;;5036480;28;20429;-48
2023/10/04 10:29:48;;;;;;;13.18;3.33;;;19.10;53.20;;;;;;5036094;28;20049;-48
2023/10/04 10:32:17;;;;;;;10.73;3.90;;;19.10;53.10;;;;;;5038762;28;20103;-50
2023/10/04 10:34:45;;;;;;;12.02;3.60;;;19.10;52.80;;;;;;5035768;28;20056;-47
2023/10/04 10:37:22;;;;;;;13.35;3.53;;;19.20;52.90;;;;;;5035575;28;20486;-49
2023/10/04 10:39:51;;;;;;;12.63;3.15;;;19.20;52.30;;;;;;5035458;28;20052;-53
2023/10/04 10:42:19;;;;;;;10.00;3.17;;;19.30;52.50;;;;;;5034860;28;20063;-45
2023/10/04 10:44:47;;;;;;;11.18;3.63;;;19.30;52.40;;;;;;5038410;28;20056;-49
2023/10/04 10:47:16;;;;;;;10.68;3.58;;;19.40;51.90;;;;;;5038564;28;20057;-49
2023/10/04 10:49:55;;;;;;;9.27;3.30;;;19.40;51.70;;;;;;5037997;28;20056;-49
2023/10/04 10:52:26;;;;;;;10.98;3.35;;;19.50;51.70;;;;;;5038596;28;20059;-46
2023/10/04 10:54:55;;;;;;;9.23;3.47;;;19.50;51.60;;;;;;5039528;28;20045;-50
2023/10/04 10:57:24;;;;;;;9.52;3.20;;;19.50;51.30;;;;;;5040687;28;20075;-51
2023/10/04 10:59:53;;;;;;;11.63;3.65;;;19.60;51.20;;;;;;5037678;28;20064;-49
2023/10/04 11:02:20;;;;;;;12.10;3.65;;;19.60;51.00;;;;;;5034251;28;20076;-49
2023/10/04 11:04:48;;;;;;;9.82;3.00;;;19.60;50.90;;;;;;5035507;28;20061;-51
2023/10/04 11:07:17;;;;;;;7.20;2.67;;;19.60;51.20;;;;;;5038479;28;20052;-50
2023/10/04 11:09:49;;;;;;;9.20;3.35;;;19.60;51.50;;;;;;5039108;28;20056;-52
2023/10/04 11:12:18;;;;;;;13.52;3.80;;;19.70;51.50;;;;;;5038275;28;20056;-52
2023/10/04 11:14:46;;;;;;;8.95;3.33;;;19.80;51.30;;;;;;5036214;28;20060;-51
2023/10/04 11:17:14;;;;;;;10.15;3.95;;;19.80;51.50;;;;;;5035717;28;20052;-50
2023/10/04 11:19:42;;;;;;;12.30;3.65;;;19.80;50.90;;;;;;5035416;28;20057;-46
2023/10/04 11:22:09;;;;;;;11.77;3.80;;;19.90;50.90;;;;;;5039278;28;20060;-51
2023/10/04 11:24:39;;;;;;;11.93;3.63;;;19.90;50.90;;;;;;5036217;28;20072;-47
2023/10/04 11:27:08;;;;;;;9.45;3.45;;;20.00;50.70;;;;;;5039531;28;20489;-49
2023/10/04 11:29:36;;;;;;;11.77;3.47;;;20.00;50.50;;;;;;5037711;28;20395;-47
2023/10/04 11:32:05;;;;;;;7.32;3.40;;;20.00;50.20;;;;;;5036931;28;20432;-47
2023/10/04 11:34:36;;;;;;;11.38;3.40;;;20.00;50.20;;;;;;5035846;28;20124;-52
2023/10/04 11:37:05;;;;;;;11.00;3.42;;;20.00;50.20;;;;;;5038037;28;20048;-47
2023/10/04 11:39:37;;;;;;;10.18;3.53;;;20.00;50.40;;;;;;5039349;28;20072;-52
2023/10/04 11:42:17;;;;;;;11.88;3.67;;;20.00;50.50;;;;;;5034239;28;20049;-48
2023/10/04 11:44:44;;;;;;;13.18;5.10;;;20.10;50.70;;;;;;5036279;28;20055;-47
2023/10/04 11:47:14;;;;;;;10.35;4.60;;;20.10;50.10;;;;;;5035050;28;20056;-49
2023/10/04 11:49:55;;;;;;;16.60;4.97;;;20.00;49.60;;;;;;5035408;28;20421;-51
2023/10/04 11:52:22;;;;;;;10.30;4.35;;;20.10;49.70;;;;;;5036692;28;20060;-48
2023/10/04 11:54:50;;;;;;;10.32;3.50;;;20.10;49.70;;;;;;5037372;28;20505;-52
2023/10/04 11:57:26;;;;;;;12.65;4.90;;;20.10;50.00;;;;;;5037304;28;20056;-49
2023/10/04 11:59:56;;;;;;;19.05;4.75;;;20.00;49.30;;;;;;5037579;28;20713;-50
2023/10/04 12:02:23;;;;;;;10.27;4.55;;;20.00;49.60;;;;;;5036290;28;20053;-53
2023/10/04 12:04:50;;;;;;;16.00;5.57;;;20.00;49.80;;;;;;5035633;28;20056;-53
2023/10/04 12:07:18;;;;;;;15.27;5.20;;;20.00;49.80;;;;;;5039185;28;20055;-47
2023/10/04 12:09:45;;;;;;;15.63;5.45;;;20.00;50.50;;;;;;5040010;28;20052;-51
2023/10/04 12:12:17;;;;;;;17.05;5.30;;;20.00;49.80;;;;;;5041471;28;20052;-53
2023/10/04 12:14:46;;;;;;;16.17;5.30;;;20.00;49.60;;;;;;5039332;28;20060;-52
2023/10/04 12:17:13;;;;;;;14.27;5.50;;;20.00;49.80;;;;;;5041342;28;20061;-49
2023/10/04 12:19:41;;;;;;;14.23;5.28;;;20.00;50.20;;;;;;5044018;28;20057;-52
2023/10/04 12:22:11;;;;;;;14.80;5.43;;;20.10;50.30;;;;;;5042251;28;20076;-51
2023/10/04 12:24:39;;;;;;;11.77;4.60;;;20.10;50.50;;;;;;5043883;28;20064;-48
2023/10/04 12:27:08;;;;;;;15.43;5.35;;;20.10;50.70;;;;;;5044123;28;20509;-50
2023/10/04 12:29:37;;;;;;;14.88;5.57;;;20.20;50.00;;;;;;5043762;28;20049;-48
2023/10/04 12:32:07;;;;;;;14.10;5.88;;;20.20;49.40;;;;;;5041157;28;20053;-47
2023/10/04 12:34:34;;;;;;;16.02;6.05;;;20.20;49.40;;;;;;5042161;28;20057;-44
2023/10/04 12:37:02;;;;;;;19.17;5.93;;;20.20;49.20;;;;;;5042662;28;20512;-47
2023/10/04 12:39:30;;;;;;;11.60;5.70;;;20.20;49.50;;;;;;5044418;28;20555;-45
2023/10/04 12:41:59;;;;;;;14.25;5.65;;;20.10;49.70;;;;;;5042947;28;20068;-46
2023/10/04 12:44:26;;;;;;;22.30;6.05;;;20.10;49.30;;;;;;5039657;28;20052;-48
2023/10/04 12:46:54;;;;;;;20.83;5.93;;;20.10;49.60;;;;;;5034056;28;20052;-46
2023/10/04 12:49:23;;;;;;;15.85;5.78;;;20.10;49.40;;;;;;5040309;28;20056;-47
2023/10/04 12:51:51;;;;;;;17.48;6.30;;;20.10;49.40;;;;;;5038307;28;20052;-46
2023/10/04 12:54:23;;;;;;;15.15;5.72;;;20.10;49.20;;;;;;5037925;28;20147;-45